Hilltop, West Virginia
Current Conditions -  °F | °C
As of 6:51 AM on Tuesday 21 Oct 2014 (Local Time) from KBKW Reporting Station
Few Clouds Few Clouds  
Wind Chill: 43°   Ceiling: Unl
Heat Index: 46°   Visibility: 10mi
Dew Point: 43°   Wind: 6mph
Humidity: 89%   Direction: 220°SW
Pressure: 29.93"   Gusts: NA
Location:  37.94°N, 81.15°W
Report Text: KBKW 211051Z AUTO 22005KT 10SM FEW023 08/06 A2993 RMK AO2 SLP133 T00780061 TSNO
Loading
Personal Weather Stations






























Interactive Weather Map
Tropical Storm Tracking
New forecast layout! Learn more

10-Day Weather Forecast

Advertisements
Track Severe Weather on mobile